createdAt,value
2016-11-26T00:00:35.729Z,0
2016-11-26T00:01:35.720Z,0
2016-11-26T00:02:35.685Z,0
2016-11-26T00:03:35.657Z,0
2016-11-26T00:04:35.691Z,0
2016-11-26T00:05:35.656Z,0
2016-11-26T00:06:35.591Z,0
2016-11-26T00:07:35.885Z,0
2016-11-26T00:08:35.552Z,0
2016-11-26T00:09:35.529Z,0
2016-11-26T00:10:35.507Z,0
2016-11-26T00:11:36.119Z,0
2016-11-26T00:12:35.490Z,0
2016-11-26T00:13:35.444Z,0
2016-11-26T00:14:35.425Z,0
2016-11-26T00:15:35.745Z,0
2016-11-26T00:16:35.379Z,0
2016-11-26T00:17:35.350Z,0
2016-11-26T00:18:35.329Z,0
2016-11-26T00:19:35.313Z,0
2016-11-26T00:20:35.315Z,0
2016-11-26T00:21:35.261Z,0
2016-11-26T00:22:35.242Z,0
2016-11-26T00:23:35.215Z,0
2016-11-26T00:24:35.269Z,0
2016-11-26T00:25:35.174Z,0
2016-11-26T00:26:35.159Z,0
2016-11-26T00:27:35.134Z,0
2016-11-26T00:28:35.108Z,0
2016-11-26T00:29:35.093Z,0
2016-11-26T00:30:35.067Z,0
2016-11-26T00:31:35.046Z,0
2016-11-26T00:32:35.019Z,0
2016-11-26T00:33:35.040Z,0
2016-11-26T00:34:35.288Z,0
2016-11-26T00:35:34.954Z,0
2016-11-26T00:36:35.248Z,0
2016-11-26T00:37:34.912Z,0
2016-11-26T00:38:35.208Z,0
2016-11-26T00:39:34.876Z,0
2016-11-26T00:40:34.841Z,0
2016-11-26T00:41:35.132Z,0
2016-11-26T00:42:34.800Z,0
2016-11-26T00:43:34.841Z,0
2016-11-26T00:44:34.774Z,0
2016-11-26T00:45:35.382Z,0
2016-11-26T00:46:34.719Z,0
2016-11-26T00:47:34.695Z,0
2016-11-26T00:48:34.669Z,0
2016-11-26T00:49:34.647Z,0
2016-11-26T00:50:34.628Z,0
2016-11-26T00:51:34.917Z,0
2016-11-26T00:52:34.891Z,0
2016-11-26T00:53:34.559Z,0
2016-11-26T00:54:34.563Z,0
2016-11-26T00:55:34.519Z,0
2016-11-26T00:56:34.493Z,0
2016-11-26T00:57:34.465Z,0
2016-11-26T00:58:34.453Z,0
2016-11-26T00:59:34.426Z,0
2016-11-26T01:00:34.402Z,0
2016-11-26T01:01:34.374Z,0
2016-11-26T01:02:34.663Z,0
2016-11-26T01:03:34.332Z,0
2016-11-26T01:04:34.335Z,0
2016-11-26T01:05:34.605Z,0
2016-11-26T01:06:34.289Z,0
2016-11-26T01:07:34.242Z,0
2016-11-26T01:08:34.223Z,0
2016-11-26T01:09:34.199Z,0
2016-11-26T01:10:34.497Z,0
2016-11-26T01:11:34.162Z,0
2016-11-26T01:12:34.761Z,0
2016-11-26T01:13:34.106Z,0
2016-11-26T01:14:34.087Z,0
2016-11-26T01:15:34.056Z,0
2016-11-26T01:16:34.352Z,0
2016-11-26T01:17:34.019Z,0
2016-11-26T01:18:34.006Z,0
2016-11-26T01:19:33.970Z,0
2016-11-26T01:20:33.948Z,0
2016-11-26T01:21:33.926Z,0
2016-11-26T01:22:34.215Z,0
2016-11-26T01:23:33.884Z,0
2016-11-26T01:24:33.858Z,0
2016-11-26T01:25:33.835Z,0
2016-11-26T01:26:33.810Z,0
2016-11-26T01:27:33.828Z,0
2016-11-26T01:28:33.767Z,0
2016-11-26T01:29:33.777Z,0
2016-11-26T01:30:34.038Z,0
2016-11-26T01:31:33.699Z,0
2016-11-26T01:32:33.684Z,0
2016-11-26T01:33:33.656Z,0
2016-11-26T01:34:33.637Z,0
2016-11-26T01:35:33.608Z,0
2016-11-26T01:36:33.594Z,0
2016-11-26T01:37:33.593Z,0
2016-11-26T01:38:33.551Z,0
2016-11-26T01:39:33.519Z,0
2016-11-26T01:40:33.816Z,0
2016-11-26T01:41:33.479Z,0
2016-11-26T01:42:33.770Z,0
2016-11-26T01:43:33.428Z,0
2016-11-26T01:44:33.407Z,0
2016-11-26T01:45:33.383Z,0
2016-11-26T01:46:33.363Z,0
2016-11-26T01:47:33.346Z,0
2016-11-26T01:48:33.318Z,0
2016-11-26T01:49:33.496Z,0
2016-11-26T01:50:33.598Z,0
2016-11-26T01:51:33.252Z,0
2016-11-26T01:52:33.544Z,0
2016-11-26T01:53:33.205Z,0
2016-11-26T01:54:33.184Z,0
2016-11-26T01:55:33.198Z,0
2016-11-26T01:56:33.451Z,0
2016-11-26T01:57:33.114Z,0
2016-11-26T01:58:33.094Z,0
2016-11-26T01:59:33.076Z,0
2016-11-26T02:00:33.675Z,0
2016-11-26T02:01:33.024Z,0
2016-11-26T02:02:33.006Z,0
2016-11-26T02:03:32.991Z,0
2016-11-26T02:04:32.955Z,0
2016-11-26T02:05:32.936Z,0
2016-11-26T02:06:33.234Z,0
2016-11-26T02:07:32.889Z,0
2016-11-26T02:08:32.873Z,0
2016-11-26T02:09:32.845Z,0
2016-11-26T02:10:32.822Z,0
2016-11-26T02:11:32.798Z,0
2016-11-26T02:12:32.779Z,0
2016-11-26T02:13:32.754Z,0
2016-11-26T02:14:32.734Z,0
2016-11-26T02:15:32.715Z,0
2016-11-26T02:16:32.687Z,0
2016-11-26T02:17:32.662Z,0
2016-11-26T02:18:32.955Z,0
2016-11-26T02:19:32.621Z,0
2016-11-26T02:20:32.909Z,0
2016-11-26T02:21:32.576Z,0
2016-11-26T02:22:32.548Z,0
2016-11-26T02:23:32.841Z,0
2016-11-26T02:24:32.513Z,0
2016-11-26T02:25:32.480Z,0
2016-11-26T02:26:32.778Z,0
2016-11-26T02:27:32.443Z,0
2016-11-26T02:28:32.421Z,0
2016-11-26T02:29:32.392Z,0
2016-11-26T02:30:32.365Z,0
2016-11-26T02:31:32.348Z,0
2016-11-26T02:32:32.645Z,0
2016-11-26T02:33:32.618Z,0
2016-11-26T02:34:32.593Z,0
2016-11-26T02:35:32.600Z,0
2016-11-26T02:36:32.231Z,0
2016-11-26T02:37:32.531Z,0
2016-11-26T02:38:32.189Z,0
2016-11-26T02:39:32.168Z,0
2016-11-26T02:40:32.142Z,0
2016-11-26T02:41:32.438Z,0
2016-11-26T02:42:32.409Z,0
2016-11-26T02:43:32.074Z,0
2016-11-26T02:44:32.366Z,0
2016-11-26T02:45:32.341Z,0
2016-11-26T02:46:32.320Z,0
2016-11-26T02:47:31.983Z,0
2016-11-26T02:48:31.956Z,0
2016-11-26T02:49:31.939Z,0
2016-11-26T02:50:32.230Z,0
2016-11-26T02:51:32.203Z,0
2016-11-26T02:52:31.873Z,0
2016-11-26T02:53:31.850Z,0
2016-11-26T02:54:31.817Z,0
2016-11-26T02:55:31.803Z,0
2016-11-26T02:56:31.778Z,0
2016-11-26T02:57:31.748Z,0
2016-11-26T02:58:31.744Z,0
2016-11-26T02:59:31.723Z,0
2016-11-26T03:00:32.013Z,0
2016-11-26T03:01:31.986Z,0
2016-11-26T03:02:31.636Z,0
2016-11-26T03:03:31.622Z,0
2016-11-26T03:04:31.598Z,0
2016-11-26T03:05:31.887Z,0
2016-11-26T03:06:31.717Z,0
2016-11-26T03:07:31.528Z,0
2016-11-26T03:08:31.506Z,0
2016-11-26T03:09:31.820Z,0
2016-11-26T03:10:31.493Z,0
2016-11-26T03:11:31.434Z,0
2016-11-26T03:12:31.413Z,0
2016-11-26T03:13:31.395Z,0
2016-11-26T03:14:31.362Z,0
2016-11-26T03:15:31.349Z,0
2016-11-26T03:16:31.951Z,0
2016-11-26T03:17:31.638Z,0
2016-11-26T03:18:31.268Z,0
2016-11-26T03:19:31.566Z,0
2016-11-26T03:20:31.235Z,0
2016-11-26T03:21:31.524Z,0
2016-11-26T03:22:31.179Z,0
2016-11-26T03:23:31.161Z,0
2016-11-26T03:24:31.151Z,0
2016-11-26T03:25:31.119Z,0
2016-11-26T03:26:31.096Z,0
2016-11-26T03:27:31.381Z,0
2016-11-26T03:28:31.059Z,0
2016-11-26T03:29:31.334Z,0
2016-11-26T03:30:31.334Z,0
2016-11-26T03:31:31.612Z,0
2016-11-26T03:32:30.956Z,0
2016-11-26T03:33:31.244Z,0
2016-11-26T03:34:31.224Z,0
2016-11-26T03:35:30.898Z,0
2016-11-26T03:36:31.179Z,0
2016-11-26T03:37:31.164Z,0
2016-11-26T03:38:30.816Z,0
2016-11-26T03:39:30.796Z,0
2016-11-26T03:40:30.792Z,0
2016-11-26T03:41:30.748Z,0
2016-11-26T03:42:30.725Z,0
2016-11-26T03:43:30.759Z,0
2016-11-26T03:44:30.999Z,0
2016-11-26T03:45:30.655Z,0
2016-11-26T03:46:31.267Z,0
2016-11-26T03:47:30.612Z,0
2016-11-26T03:48:30.898Z,0
2016-11-26T03:49:30.769Z,0
2016-11-26T03:50:30.545Z,0
2016-11-26T03:51:30.515Z,0
2016-11-26T03:52:30.491Z,0
2016-11-26T03:53:30.468Z,0
2016-11-26T03:54:30.448Z,0
2016-11-26T03:55:30.423Z,0
2016-11-26T03:56:30.404Z,0
2016-11-26T03:57:30.689Z,0
2016-11-26T03:58:30.363Z,0
2016-11-26T03:59:30.334Z,0
2016-11-26T04:00:30.624Z,0
2016-11-26T04:01:30.603Z,0
2016-11-26T04:02:30.265Z,0
2016-11-26T04:03:30.242Z,0
2016-11-26T04:04:30.214Z,0
2016-11-26T04:05:30.199Z,0
2016-11-26T04:06:30.193Z,0
2016-11-26T04:07:30.484Z,0
2016-11-26T04:08:30.147Z,0
2016-11-26T04:09:30.107Z,0
2016-11-26T04:10:30.712Z,0
2016-11-26T04:11:30.063Z,0
2016-11-26T04:12:30.358Z,0
2016-11-26T04:13:30.327Z,0
2016-11-26T04:14:29.987Z,0
2016-11-26T04:15:30.618Z,0
2016-11-26T04:16:29.941Z,0
2016-11-26T04:17:29.929Z,0
2016-11-26T04:18:29.902Z,0
2016-11-26T04:19:29.871Z,0
2016-11-26T04:20:29.843Z,0
2016-11-26T04:21:30.143Z,0
2016-11-26T04:22:29.804Z,0
2016-11-26T04:23:29.782Z,0
2016-11-26T04:24:29.758Z,0
2016-11-26T04:25:29.737Z,0
2016-11-26T04:26:29.706Z,0
2016-11-26T04:27:30.033Z,0
2016-11-26T04:28:29.679Z,0
2016-11-26T04:29:29.648Z,0
2016-11-26T04:30:29.621Z,0
2016-11-26T04:31:29.609Z,0
2016-11-26T04:32:29.571Z,0
2016-11-26T04:33:29.557Z,0
2016-11-26T04:34:29.527Z,0
2016-11-26T04:35:29.521Z,0
2016-11-26T04:36:29.486Z,0
2016-11-26T04:37:29.464Z,0
2016-11-26T04:38:29.433Z,0
2016-11-26T04:39:29.727Z,0
2016-11-26T04:40:29.387Z,0
2016-11-26T04:41:29.367Z,0
2016-11-26T04:42:29.341Z,0
2016-11-26T04:43:29.315Z,0
2016-11-26T04:44:29.610Z,0
2016-11-26T04:45:29.271Z,0
2016-11-26T04:46:29.246Z,0
2016-11-26T04:47:29.542Z,0
2016-11-26T04:48:29.205Z,0
2016-11-26T04:49:29.185Z,0
2016-11-26T04:50:29.477Z,0
2016-11-26T04:51:29.135Z,0
2016-11-26T04:52:29.121Z,0
2016-11-26T04:53:29.401Z,0
2016-11-26T04:54:29.753Z,0
2016-11-26T04:55:29.054Z,0
2016-11-26T04:56:29.021Z,0
2016-11-26T04:57:29.026Z,0
2016-11-26T04:58:28.969Z,0
2016-11-26T04:59:28.955Z,0
2016-11-26T05:00:28.923Z,0
2016-11-26T05:01:28.908Z,0
2016-11-26T05:02:28.876Z,0
2016-11-26T05:03:29.180Z,0
2016-11-26T05:04:28.841Z,0
2016-11-26T05:05:28.810Z,0
2016-11-26T05:06:29.100Z,0
2016-11-26T05:07:28.769Z,0
2016-11-26T05:08:29.068Z,0
2016-11-26T05:09:28.720Z,0
2016-11-26T05:10:29.012Z,0
2016-11-26T05:11:28.688Z,0
2016-11-26T05:12:28.655Z,0
2016-11-26T05:13:28.940Z,0
2016-11-26T05:14:28.605Z,0
2016-11-26T05:15:28.950Z,0
2016-11-26T05:16:28.913Z,0
2016-11-26T05:17:28.536Z,0
2016-11-26T05:18:28.515Z,0
2016-11-26T05:19:28.489Z,0
2016-11-26T05:20:28.464Z,0
2016-11-26T05:21:28.760Z,0
2016-11-26T05:22:29.046Z,0
2016-11-26T05:23:28.714Z,0
2016-11-26T05:24:28.368Z,0
2016-11-26T05:25:28.360Z,0
2016-11-26T05:26:28.329Z,0
2016-11-26T05:27:28.310Z,0
2016-11-26T05:28:28.282Z,0
2016-11-26T05:29:28.257Z,0
2016-11-26T05:30:28.557Z,0
2016-11-26T05:31:28.216Z,0
2016-11-26T05:32:28.817Z,0
2016-11-26T05:33:28.175Z,0
2016-11-26T05:34:28.456Z,0
2016-11-26T05:35:28.439Z,0
2016-11-26T05:36:28.093Z,0
2016-11-26T05:37:28.080Z,0
2016-11-26T05:38:28.078Z,0
2016-11-26T05:39:28.028Z,0
2016-11-26T05:40:28.005Z,0
2016-11-26T05:41:27.980Z,0
2016-11-26T05:42:27.966Z,0
2016-11-26T05:43:27.932Z,0
2016-11-26T05:44:28.223Z,0
2016-11-26T05:45:27.890Z,0
2016-11-26T05:46:28.177Z,0
2016-11-26T05:47:27.842Z,0
2016-11-26T05:48:27.819Z,0
2016-11-26T05:49:28.198Z,0
2016-11-26T05:50:28.081Z,0
2016-11-26T05:51:27.753Z,0
2016-11-26T05:52:27.726Z,0
2016-11-26T05:53:28.024Z,0
2016-11-26T05:54:27.690Z,0
2016-11-26T05:55:27.654Z,0
2016-11-26T05:56:27.627Z,0
2016-11-26T05:57:27.618Z,0
2016-11-26T05:58:27.586Z,0
2016-11-26T05:59:27.561Z,0
2016-11-26T06:00:27.540Z,0
2016-11-26T06:01:27.514Z,0
2016-11-26T06:02:27.502Z,0
2016-11-26T06:03:27.473Z,0
2016-11-26T06:04:27.453Z,0
2016-11-26T06:05:27.455Z,0
2016-11-26T06:06:27.405Z,0
2016-11-26T06:07:27.379Z,0
2016-11-26T06:08:27.351Z,0
2016-11-26T06:09:27.334Z,0
2016-11-26T06:10:27.304Z,0
2016-11-26T06:11:27.594Z,0
2016-11-26T06:12:27.271Z,0
2016-11-26T06:13:27.236Z,0
2016-11-26T06:14:27.220Z,0
2016-11-26T06:15:27.192Z,0
2016-11-26T06:16:27.171Z,0
2016-11-26T06:17:27.148Z,0
2016-11-26T06:18:27.118Z,0
2016-11-26T06:19:27.095Z,0
2016-11-26T06:20:27.390Z,0
2016-11-26T06:21:27.057Z,0
2016-11-26T06:22:27.027Z,0
2016-11-26T06:23:27.031Z,0
2016-11-26T06:24:26.993Z,0
2016-11-26T06:25:26.965Z,0
2016-11-26T06:26:26.993Z,0
2016-11-26T06:27:26.956Z,0
2016-11-26T06:28:27.527Z,0
2016-11-26T06:29:26.917Z,0
2016-11-26T06:30:27.155Z,0
2016-11-26T06:31:27.125Z,0
2016-11-26T06:32:26.798Z,0
2016-11-26T06:33:26.781Z,0
2016-11-26T06:34:26.751Z,0
2016-11-26T06:35:27.037Z,0
2016-11-26T06:36:26.702Z,0
2016-11-26T06:37:26.680Z,0
2016-11-26T06:38:26.967Z,0
2016-11-26T06:39:26.633Z,0
2016-11-26T06:40:26.636Z,0
2016-11-26T06:41:26.586Z,0
2016-11-26T06:42:26.560Z,0
2016-11-26T06:43:26.537Z,0
2016-11-26T06:44:26.520Z,0
2016-11-26T06:45:26.803Z,0
2016-11-26T06:46:26.783Z,0
2016-11-26T06:47:26.758Z,0
2016-11-26T06:48:26.744Z,0
2016-11-26T06:49:26.455Z,0
2016-11-26T06:50:26.374Z,0
2016-11-26T06:51:26.371Z,0
2016-11-26T06:52:26.323Z,0
2016-11-26T06:53:26.304Z,0
2016-11-26T06:54:26.281Z,0
2016-11-26T06:55:26.576Z,0
2016-11-26T06:56:26.550Z,0
2016-11-26T06:57:26.533Z,0
2016-11-26T06:58:27.174Z,0
2016-11-26T06:59:26.165Z,0
2016-11-26T07:00:26.196Z,0
2016-11-26T07:01:26.432Z,0
2016-11-26T07:02:26.419Z,5
2016-11-26T07:03:26.070Z,5
2016-11-26T07:04:26.394Z,5
2016-11-26T07:05:26.025Z,5
2016-11-26T07:06:26.319Z,5
2016-11-26T07:07:25.983Z,5
2016-11-26T07:08:25.955Z,5
2016-11-26T07:09:25.929Z,5
2016-11-26T07:10:25.906Z,5
2016-11-26T07:11:25.885Z,5
2016-11-26T07:12:26.175Z,5
2016-11-26T07:13:25.839Z,5
2016-11-26T07:14:25.816Z,10
2016-11-26T07:15:25.790Z,10
2016-11-26T07:16:26.079Z,10
2016-11-26T07:17:25.742Z,10
2016-11-26T07:18:26.044Z,10
2016-11-26T07:19:25.698Z,10
2016-11-26T07:20:25.984Z,10
2016-11-26T07:21:25.964Z,10
2016-11-26T07:22:25.627Z,15
2016-11-26T07:23:25.922Z,15
2016-11-26T07:24:25.588Z,15
2016-11-26T07:25:25.559Z,15
2016-11-26T07:26:25.533Z,15
2016-11-26T07:27:25.507Z,15
2016-11-26T07:28:25.489Z,15
2016-11-26T07:29:25.465Z,15
2016-11-26T07:30:25.450Z,15
2016-11-26T07:31:25.737Z,15
2016-11-26T07:32:25.728Z,20
2016-11-26T07:33:25.399Z,20
2016-11-26T07:34:26.031Z,20
2016-11-26T07:35:25.329Z,20
2016-11-26T07:36:25.619Z,20
2016-11-26T07:37:25.605Z,20
2016-11-26T07:38:25.578Z,20
2016-11-26T07:39:25.247Z,20
2016-11-26T07:40:25.531Z,20
2016-11-26T07:41:25.185Z,15
2016-11-26T07:42:25.163Z,15
2016-11-26T07:43:25.139Z,15
2016-11-26T07:44:25.128Z,20
2016-11-26T07:45:25.426Z,20
2016-11-26T07:46:25.381Z,20
2016-11-26T07:47:25.049Z,25
2016-11-26T07:48:25.030Z,25
2016-11-26T07:49:25.338Z,25
2016-11-26T07:50:25.186Z,25
2016-11-26T07:51:24.961Z,25
2016-11-26T07:52:25.581Z,25
2016-11-26T07:53:24.946Z,30
2016-11-26T07:54:25.207Z,30
2016-11-26T07:55:24.873Z,30
2016-11-26T07:56:24.847Z,30
2016-11-26T07:57:24.824Z,30
2016-11-26T07:58:24.816Z,30
2016-11-26T07:59:24.782Z,35
2016-11-26T08:00:25.074Z,35
2016-11-26T08:01:24.738Z,35
2016-11-26T08:02:24.714Z,40
2016-11-26T08:03:24.694Z,40
2016-11-26T08:04:24.672Z,40
2016-11-26T08:05:24.991Z,45
2016-11-26T08:06:24.630Z,45
2016-11-26T08:07:24.600Z,45
2016-11-26T08:08:24.902Z,50
2016-11-26T08:09:24.561Z,50
2016-11-26T08:10:24.860Z,55
2016-11-26T08:11:24.508Z,55
2016-11-26T08:12:24.492Z,55
2016-11-26T08:13:24.485Z,55
2016-11-26T08:14:24.765Z,60
2016-11-26T08:15:24.434Z,65
2016-11-26T08:16:24.408Z,70
2016-11-26T08:17:24.388Z,75
2016-11-26T08:18:24.364Z,80
2016-11-26T08:19:24.345Z,80
2016-11-26T08:20:24.316Z,75
2016-11-26T08:21:24.305Z,75
2016-11-26T08:22:24.282Z,75
2016-11-26T08:23:24.261Z,75
2016-11-26T08:24:24.544Z,75
2016-11-26T08:25:24.210Z,75
2016-11-26T08:26:24.191Z,75
2016-11-26T08:27:24.174Z,75
2016-11-26T08:28:24.152Z,80
2016-11-26T08:29:24.126Z,80
2016-11-26T08:30:24.102Z,85
2016-11-26T08:31:24.398Z,90
2016-11-26T08:32:24.064Z,95
2016-11-26T08:33:24.038Z,100
2016-11-26T08:34:24.109Z,105
2016-11-26T08:35:24.013Z,110
2016-11-26T08:36:23.983Z,110
2016-11-26T08:37:23.965Z,115
2016-11-26T08:38:23.926Z,115
2016-11-26T08:39:24.264Z,125
2016-11-26T08:40:23.897Z,135
2016-11-26T08:41:24.180Z,140
2016-11-26T08:42:24.186Z,145
2016-11-26T08:43:24.780Z,150
2016-11-26T08:44:23.804Z,155
2016-11-26T08:45:24.102Z,160
2016-11-26T08:46:23.768Z,165
2016-11-26T08:47:23.743Z,165
2016-11-26T08:48:24.029Z,170
2016-11-26T08:49:23.706Z,175
2016-11-26T08:50:23.679Z,180
2016-11-26T08:51:24.289Z,180
2016-11-26T08:52:23.638Z,180
2016-11-26T08:53:23.611Z,180
2016-11-26T08:54:23.596Z,180
2016-11-26T08:55:23.568Z,180
2016-11-26T08:56:23.583Z,185
2016-11-26T08:57:23.534Z,185
2016-11-26T08:58:23.875Z,185
2016-11-26T08:59:23.500Z,185
2016-11-26T09:00:23.478Z,190
2016-11-26T09:01:23.453Z,190
2016-11-26T09:02:23.428Z,190
2016-11-26T09:03:23.738Z,190
2016-11-26T09:04:23.710Z,190
2016-11-26T09:05:23.372Z,190
2016-11-26T09:06:23.351Z,185
2016-11-26T09:07:23.352Z,180
2016-11-26T09:08:23.310Z,180
2016-11-26T09:09:23.332Z,175
2016-11-26T09:10:23.276Z,180
2016-11-26T09:11:23.567Z,180
2016-11-26T09:12:23.577Z,180
2016-11-26T09:13:23.219Z,175
2016-11-26T09:14:23.510Z,175
2016-11-26T09:15:23.172Z,175
2016-11-26T09:16:23.152Z,180
2016-11-26T09:17:23.140Z,180
2016-11-26T09:18:23.120Z,185
2016-11-26T09:19:23.102Z,190
2016-11-26T09:20:23.078Z,190
2016-11-26T09:21:23.053Z,195
2016-11-26T09:22:23.352Z,210
2016-11-26T09:23:23.020Z,220
2016-11-26T09:24:23.315Z,210
2016-11-26T09:25:22.982Z,240
2016-11-26T09:26:22.979Z,280
2016-11-26T09:27:22.950Z,295
2016-11-26T09:28:22.918Z,295
2016-11-26T09:29:22.909Z,245
2016-11-26T09:30:22.885Z,200
2016-11-26T09:31:22.869Z,190
2016-11-26T09:32:22.851Z,180
2016-11-26T09:33:23.154Z,175
2016-11-26T09:34:22.819Z,170
2016-11-26T09:35:22.799Z,165
2016-11-26T09:36:22.779Z,170
2016-11-26T09:37:22.764Z,170
2016-11-26T09:38:22.746Z,175
2016-11-26T09:39:22.723Z,185
2016-11-26T09:40:22.712Z,175
2016-11-26T09:41:23.016Z,165
2016-11-26T09:42:22.671Z,160
2016-11-26T09:43:22.999Z,155
2016-11-26T09:44:22.635Z,160
2016-11-26T09:45:22.936Z,160
2016-11-26T09:46:22.660Z,180
2016-11-26T09:47:22.610Z,190
2016-11-26T09:48:22.565Z,195
2016-11-26T09:49:22.539Z,180
2016-11-26T09:50:22.731Z,180
2016-11-26T09:51:22.520Z,175
2016-11-26T09:52:22.836Z,165
2016-11-26T09:53:22.475Z,165
2016-11-26T09:54:22.458Z,160
2016-11-26T09:55:22.439Z,165
2016-11-26T09:56:22.425Z,165
2016-11-26T09:57:22.407Z,170
2016-11-26T09:58:22.393Z,165
2016-11-26T09:59:22.373Z,165
2016-11-26T10:00:22.669Z,160
2016-11-26T10:01:22.662Z,170
2016-11-26T10:02:22.310Z,170
2016-11-26T10:03:22.302Z,180
2016-11-26T10:04:22.596Z,180
2016-11-26T10:05:22.266Z,175
2016-11-26T10:06:22.246Z,180
2016-11-26T10:07:22.229Z,180
2016-11-26T10:08:22.217Z,175
2016-11-26T10:09:22.844Z,190
2016-11-26T10:10:22.493Z,230
2016-11-26T10:11:22.478Z,250
2016-11-26T10:12:22.460Z,265
2016-11-26T10:13:22.152Z,290
2016-11-26T10:14:22.103Z,305
2016-11-26T10:15:22.094Z,320
2016-11-26T10:16:22.392Z,325
2016-11-26T10:17:22.083Z,335
2016-11-26T10:18:22.356Z,330
2016-11-26T10:19:22.023Z,335
2016-11-26T10:20:22.001Z,350
2016-11-26T10:21:21.996Z,395
2016-11-26T10:22:21.975Z,435
2016-11-26T10:23:21.959Z,435
2016-11-26T10:24:22.258Z,410
2016-11-26T10:25:21.935Z,410
2016-11-26T10:26:21.913Z,410
2016-11-26T10:27:21.897Z,345
2016-11-26T10:28:21.884Z,295
2016-11-26T10:29:21.868Z,330
2016-11-26T10:30:21.855Z,355
2016-11-26T10:31:21.840Z,405
2016-11-26T10:32:21.830Z,415
2016-11-26T10:33:22.130Z,355
2016-11-26T10:34:21.792Z,290
2016-11-26T10:35:22.100Z,295
2016-11-26T10:36:21.773Z,320
2016-11-26T10:37:21.764Z,305
2016-11-26T10:38:21.747Z,310
2016-11-26T10:39:21.735Z,335
2016-11-26T10:40:21.716Z,345
2016-11-26T10:41:22.026Z,355
2016-11-26T10:42:21.704Z,385
2016-11-26T10:43:21.991Z,380
2016-11-26T10:44:21.991Z,370
2016-11-26T10:45:21.649Z,350
2016-11-26T10:46:21.637Z,365
2016-11-26T10:47:21.939Z,380
2016-11-26T10:48:21.620Z,395
2016-11-26T10:49:21.600Z,410
2016-11-26T10:50:21.906Z,390
2016-11-26T10:51:21.581Z,395
2016-11-26T10:52:21.565Z,425
2016-11-26T10:53:21.567Z,435
2016-11-26T10:54:21.536Z,435
2016-11-26T10:55:21.560Z,425
2016-11-26T10:56:21.522Z,425
2016-11-26T10:57:21.556Z,445
2016-11-26T10:58:21.495Z,435
2016-11-26T10:59:21.488Z,415
2016-11-26T11:00:21.473Z,365
2016-11-26T11:01:21.772Z,325
2016-11-26T11:02:21.458Z,315
2016-11-26T11:03:21.437Z,330
2016-11-26T11:04:21.750Z,370
2016-11-26T11:05:21.737Z,360
2016-11-26T11:06:21.412Z,360
2016-11-26T11:07:21.403Z,350
2016-11-26T11:08:21.389Z,350
2016-11-26T11:09:21.406Z,335
2016-11-26T11:10:21.370Z,330
2016-11-26T11:11:21.670Z,335
2016-11-26T11:12:22.005Z,350
2016-11-26T11:13:21.653Z,360
2016-11-26T11:14:21.336Z,350
2016-11-26T11:15:21.643Z,330
2016-11-26T11:16:21.306Z,310
2016-11-26T11:17:21.297Z,310
2016-11-26T11:18:21.292Z,315
2016-11-26T11:19:21.277Z,320
2016-11-26T11:20:21.271Z,310
2016-11-26T11:21:21.258Z,285
2016-11-26T11:22:21.244Z,280
2016-11-26T11:23:21.235Z,275
2016-11-26T11:24:21.221Z,270
2016-11-26T11:25:21.215Z,270
2016-11-26T11:26:21.830Z,270
2016-11-26T11:27:21.182Z,270
2016-11-26T11:28:21.183Z,270
2016-11-26T11:29:21.175Z,270
2016-11-26T11:30:21.190Z,270
2016-11-26T11:31:21.178Z,270
2016-11-26T11:32:21.451Z,270
2016-11-26T11:33:21.124Z,270
2016-11-26T11:34:21.113Z,270
2016-11-26T11:35:21.105Z,255
2016-11-26T11:36:21.089Z,250
2016-11-26T11:37:21.077Z,250
2016-11-26T11:38:21.073Z,240
2016-11-26T11:39:21.049Z,230
2016-11-26T11:40:21.355Z,225
2016-11-26T11:41:21.667Z,215
2016-11-26T11:42:21.023Z,215
2016-11-26T11:43:21.003Z,210
2016-11-26T11:44:21.626Z,205
2016-11-26T11:45:20.982Z,205
2016-11-26T11:46:20.966Z,205
2016-11-26T11:47:20.955Z,200
2016-11-26T11:48:21.021Z,200
2016-11-26T11:49:20.999Z,200
2016-11-26T11:50:20.922Z,200
2016-11-26T11:51:20.904Z,200
2016-11-26T11:52:21.528Z,200
2016-11-26T11:53:21.187Z,205
2016-11-26T11:54:20.869Z,210
2016-11-26T11:55:20.851Z,210
2016-11-26T11:56:20.837Z,215
2016-11-26T11:57:20.820Z,210
2016-11-26T11:58:20.812Z,205
2016-11-26T11:59:20.795Z,210
2016-11-26T12:00:21.116Z,210
2016-11-26T12:01:21.287Z,210
2016-11-26T12:02:20.762Z,205
2016-11-26T12:03:20.744Z,185
2016-11-26T12:04:21.044Z,180
2016-11-26T12:05:21.072Z,175
2016-11-26T12:06:21.026Z,170
2016-11-26T12:07:21.324Z,170
2016-11-26T12:08:21.307Z,170
2016-11-26T12:09:20.662Z,165
2016-11-26T12:10:20.963Z,165
2016-11-26T12:11:20.648Z,160
2016-11-26T12:12:21.273Z,160
2016-11-26T12:13:20.609Z,165
2016-11-26T12:14:20.947Z,160
2016-11-26T12:15:20.576Z,160
2016-11-26T12:16:20.616Z,160
2016-11-26T12:17:20.618Z,160
2016-11-26T12:18:20.538Z,160
2016-11-26T12:19:20.525Z,160
2016-11-26T12:20:20.839Z,155
2016-11-26T12:21:20.491Z,155
2016-11-26T12:22:20.529Z,155
2016-11-26T12:23:20.797Z,155
2016-11-26T12:24:20.459Z,150
2016-11-26T12:25:21.073Z,150
2016-11-26T12:26:20.747Z,150
2016-11-26T12:27:20.750Z,150
2016-11-26T12:28:20.386Z,150
2016-11-26T12:29:20.375Z,150
2016-11-26T12:30:20.363Z,150
2016-11-26T12:31:20.349Z,150
2016-11-26T12:32:20.649Z,150
2016-11-26T12:33:20.953Z,150
2016-11-26T12:34:20.309Z,150
2016-11-26T12:35:20.627Z,150
2016-11-26T12:36:20.269Z,155
2016-11-26T12:37:20.582Z,150
2016-11-26T12:38:20.244Z,150
2016-11-26T12:39:20.233Z,150
2016-11-26T12:40:20.235Z,145
2016-11-26T12:41:20.513Z,145
2016-11-26T12:42:20.189Z,145
2016-11-26T12:43:20.187Z,145
2016-11-26T12:44:20.152Z,140
2016-11-26T12:45:20.452Z,135
2016-11-26T12:46:20.122Z,135
2016-11-26T12:47:20.101Z,135
2016-11-26T12:48:20.099Z,135
2016-11-26T12:49:20.391Z,135
2016-11-26T12:50:20.072Z,135
2016-11-26T12:51:20.044Z,135
2016-11-26T12:52:20.021Z,135
2016-11-26T12:53:20.322Z,135
2016-11-26T12:54:19.991Z,135
2016-11-26T12:55:19.978Z,135
2016-11-26T12:56:19.960Z,135
2016-11-26T12:57:19.949Z,140
2016-11-26T12:58:19.946Z,140
2016-11-26T12:59:19.940Z,150
2016-11-26T13:00:20.247Z,150
2016-11-26T13:01:20.572Z,160
2016-11-26T13:02:19.972Z,165
2016-11-26T13:03:19.862Z,180
2016-11-26T13:04:19.862Z,190
2016-11-26T13:05:19.880Z,215
2016-11-26T13:06:20.125Z,225
2016-11-26T13:07:20.264Z,235
2016-11-26T13:08:20.179Z,245
2016-11-26T13:09:19.873Z,245
2016-11-26T13:10:19.787Z,245
2016-11-26T13:11:20.174Z,230
2016-11-26T13:12:19.866Z,225
2016-11-26T13:13:19.816Z,220
2016-11-26T13:14:19.751Z,215
2016-11-26T13:15:19.757Z,210
2016-11-26T13:16:20.102Z,210
2016-11-26T13:17:19.649Z,205
2016-11-26T13:18:19.752Z,195
2016-11-26T13:19:19.709Z,195
2016-11-26T13:20:19.991Z,185
2016-11-26T13:21:19.737Z,180
2016-11-26T13:22:19.630Z,180
2016-11-26T13:23:19.647Z,175
2016-11-26T13:24:19.606Z,175
2016-11-26T13:25:19.897Z,165
2016-11-26T13:26:19.628Z,165
2016-11-26T13:27:19.567Z,170
2016-11-26T13:28:20.503Z,165
2016-11-26T13:29:19.571Z,170
2016-11-26T13:30:19.856Z,160
2016-11-26T13:31:19.894Z,160
2016-11-26T13:32:19.483Z,155
2016-11-26T13:33:19.457Z,145
2016-11-26T13:34:19.457Z,130
2016-11-26T13:35:20.120Z,135
2016-11-26T13:36:19.494Z,130
2016-11-26T13:37:19.740Z,120
2016-11-26T13:38:19.741Z,105
2016-11-26T13:39:19.672Z,105
2016-11-26T13:40:19.975Z,95
2016-11-26T13:41:19.331Z,95
2016-11-26T13:42:19.314Z,90
2016-11-26T13:43:19.301Z,90
2016-11-26T13:44:19.594Z,90
2016-11-26T13:45:19.271Z,90
2016-11-26T13:46:19.263Z,90
2016-11-26T13:47:19.241Z,90
2016-11-26T13:48:19.242Z,85
2016-11-26T13:49:19.536Z,85
2016-11-26T13:50:21.213Z,85
2016-11-26T13:51:19.539Z,80
2016-11-26T13:52:19.836Z,80
2016-11-26T13:53:19.168Z,80
2016-11-26T13:54:19.467Z,80
2016-11-26T13:55:19.766Z,80
2016-11-26T13:56:19.438Z,80
2016-11-26T13:57:19.413Z,80
2016-11-26T13:58:19.462Z,85
2016-11-26T13:59:19.093Z,85
2016-11-26T14:00:19.050Z,85
2016-11-26T14:01:19.348Z,85
2016-11-26T14:02:19.339Z,85
2016-11-26T14:03:19.022Z,80
2016-11-26T14:04:19.795Z,80
2016-11-26T14:05:19.293Z,80
2016-11-26T14:06:18.964Z,80
2016-11-26T14:07:19.275Z,80
2016-11-26T14:08:18.959Z,75
2016-11-26T14:09:19.216Z,75
2016-11-26T14:10:19.216Z,75
2016-11-26T14:11:19.192Z,70
2016-11-26T14:12:18.861Z,70
2016-11-26T14:13:19.787Z,65
2016-11-26T14:14:19.148Z,65
2016-11-26T14:15:19.131Z,60
2016-11-26T14:16:19.105Z,60
2016-11-26T14:17:18.774Z,60
2016-11-26T14:18:18.814Z,55
2016-11-26T14:19:18.748Z,55
2016-11-26T14:20:18.732Z,55